Time;durP1;ratioP1;P1;durP2;ratioP2;P2;SDS_P1;SDS_P2;PMS_P1;PMS_P2;Temp;Humidity;BMP_temperature;BMP_pressure;BME280_temperature;BME280_humidity;BME280_pressure;Samples;Min_cycle;Max_cycle;Signal;HPM_P1;HPM_P2
2022/07/03 00:00:41;;;;;;;18.42;12.28;;;;;;;19.08;94.91;95097.88;1589648;88;21022;-53
2022/07/03 00:03:09;;;;;;;18.67;11.57;;;;;;;19.07;94.92;95092.16;1610058;88;21011;-52
2022/07/03 00:05:40;;;;;;;20.17;10.53;;;;;;;19.08;95.27;95090.13;1659223;85;21023;-53
2022/07/03 00:08:07;;;;;;;17.70;10.93;;;;;;;19.09;95.12;95089.64;1658361;85;21137;-53
2022/07/03 00:10:36;;;;;;;16.37;10.98;;;;;;;19.09;94.87;95093.83;1673480;83;20979;-54
2022/07/03 00:13:04;;;;;;;19.27;11.70;;;;;;;19.07;94.71;95090.77;1660172;85;20990;-54
2022/07/03 00:15:32;;;;;;;16.23;10.80;;;;;;;18.99;94.65;95086.88;1677495;83;20979;-54
2022/07/03 00:17:59;;;;;;;14.30;10.95;;;;;;;18.96;95.30;95085.08;1671119;85;21078;-53
2022/07/03 00:20:29;;;;;;;14.58;9.83;;;;;;;18.98;95.41;95078.38;1676142;85;21946;-53
2022/07/03 00:22:57;;;;;;;13.68;9.95;;;;;;;18.98;95.25;95084.59;1635184;86;21078;-53
2022/07/03 00:25:26;;;;;;;17.30;10.18;;;;;;;18.96;94.84;95082.30;1668108;85;21197;-54
2022/07/03 00:27:54;;;;;;;14.10;10.65;;;;;;;18.93;94.79;95081.89;1660541;85;21146;-54
2022/07/03 00:30:22;;;;;;;19.17;11.00;;;;;;;18.92;94.75;95076.79;1653000;85;21730;-53
2022/07/03 00:32:50;;;;;;;14.95;10.85;;;;;;;18.90;94.87;95071.73;1667010;84;21959;-53
2022/07/03 00:35:19;;;;;;;15.48;9.65;;;;;;;18.89;94.63;95078.56;1676491;84;21498;-53
2022/07/03 00:37:47;;;;;;;15.13;9.65;;;;;;;18.88;94.40;95070.06;1662641;85;21082;-53
2022/07/03 00:40:16;;;;;;;17.45;12.03;;;;;;;18.86;94.44;95070.41;1669619;85;21984;-53
2022/07/03 00:42:44;;;;;;;18.67;12.90;;;;;;;18.83;94.97;95069.36;1665140;85;20962;-52
2022/07/03 00:45:12;;;;;;;16.10;11.15;;;;;;;18.84;95.44;95069.49;1668922;85;21324;-52
2022/07/03 00:47:40;;;;;;;15.23;11.40;;;;;;;18.86;95.44;95076.73;1666497;85;20967;-52
2022/07/03 00:50:10;;;;;;;16.00;10.15;;;;;;;18.89;95.73;95067.41;1660965;85;21018;-55
2022/07/03 00:52:39;;;;;;;17.42;11.28;;;;;;;18.93;95.86;95058.80;1658032;85;21019;-53
2022/07/03 00:55:13;;;;;;;17.80;12.68;;;;;;;18.97;95.87;95062.91;1652819;85;21082;-52
2022/07/03 00:57:46;;;;;;;22.85;12.40;;;;;;;19.03;96.25;95063.70;1661982;85;21841;-53
2022/07/03 01:00:15;;;;;;;23.75;12.37;;;;;;;19.09;95.80;95061.75;1658298;85;21095;-52
2022/07/03 01:02:48;;;;;;;17.25;11.70;;;;;;;19.13;95.43;95058.10;1640045;84;21019;-52
2022/07/03 01:05:40;;;;;;;20.72;12.18;;;;;;;19.16;95.18;95055.74;1653182;85;21125;-53
2022/07/03 01:08:35;;;;;;;23.25;13.18;;;;;;;19.16;94.92;95052.95;1655526;84;21651;-53
2022/07/03 01:11:35;;;;;;;23.20;13.78;;;;;;;19.13;94.90;95044.77;1660158;84;21244;-52
2022/07/03 01:14:23;;;;;;;16.65;11.78;;;;;;;19.12;95.07;95046.03;1645847;85;20971;-52
2022/07/03 01:17:02;;;;;;;17.98;11.78;;;;;;;19.12;95.03;95044.02;1661626;85;20978;-53
2022/07/03 01:19:42;;;;;;;15.78;11.75;;;;;;;19.15;95.33;95040.23;1670281;84;21030;-52
2022/07/03 01:22:35;;;;;;;22.25;13.65;;;;;;;19.19;95.07;95028.89;1666082;85;21078;-52
2022/07/03 01:25:27;;;;;;;21.02;12.82;;;;;;;19.19;94.93;95038.01;1661732;84;21260;-52
2022/07/03 01:28:17;;;;;;;17.70;11.85;;;;;;;19.18;95.07;95035.09;1658792;85;20959;-54
2022/07/03 01:30:54;;;;;;;20.43;13.78;;;;;;;19.23;95.52;95038.54;1654457;85;21561;-53
2022/07/03 01:33:31;;;;;;;22.65;14.30;;;;;;;19.29;94.81;95035.19;1658480;85;20994;-52
2022/07/03 01:36:07;;;;;;;22.67;13.50;;;;;;;19.27;94.39;95029.34;1640272;85;21750;-52
2022/07/03 01:38:39;;;;;;;21.52;13.50;;;;;;;19.22;94.36;95034.22;1655563;85;21222;-54
2022/07/03 01:41:11;;;;;;;20.08;12.30;;;;;;;19.14;93.69;95028.95;1659116;85;21026;-53
2022/07/03 01:43:48;;;;;;;19.62;13.48;;;;;;;19.05;93.55;95024.93;1622694;84;21094;-52
2022/07/03 01:46:18;;;;;;;23.30;15.32;;;;;;;18.96;93.72;95022.33;1665125;85;21094;-52
2022/07/03 01:48:46;;;;;;;22.55;14.03;;;;;;;18.90;93.92;95026.33;1675880;85;20999;-52
2022/07/03 01:51:14;;;;;;;20.57;13.32;;;;;;;18.83;94.28;95023.36;1665065;84;21148;-52
2022/07/03 01:53:45;;;;;;;20.05;12.82;;;;;;;18.80;94.57;95024.34;1667825;85;21594;-53
2022/07/03 01:56:14;;;;;;;19.15;12.10;;;;;;;18.77;95.02;95024.56;1670536;85;20995;-52
2022/07/03 01:58:42;;;;;;;21.00;12.95;;;;;;;18.77;95.34;95015.58;1667820;84;21708;-52
2022/07/03 02:01:40;;;;;;;23.12;15.23;;;;;;;18.78;95.75;95025.47;1647326;85;20974;-53
2022/07/03 02:04:21;;;;;;;23.05;15.25;;;;;;;18.80;95.98;95026.39;1672119;85;21244;-52
2022/07/03 02:07:06;;;;;;;20.52;13.58;;;;;;;18.80;95.94;95021.56;1649843;85;21066;-52
2022/07/03 02:09:53;;;;;;;21.48;12.82;;;;;;;18.81;95.79;95027.91;1667748;84;21070;-53
2022/07/03 02:12:24;;;;;;;24.70;13.60;;;;;;;18.80;96.04;95032.71;1646593;85;20987;-52
2022/07/03 02:15:07;;;;;;;21.07;14.60;;;;;;;18.83;96.26;95024.75;1655712;85;21560;-52
2022/07/03 02:17:41;;;;;;;24.52;14.58;;;;;;;18.88;96.33;95019.88;1662708;85;21218;-52
2022/07/03 02:20:09;;;;;;;28.20;13.62;;;;;;;18.91;96.28;95019.50;1660530;84;20971;-55
2022/07/03 02:22:50;;;;;;;21.27;13.35;;;;;;;18.94;96.43;95022.06;1672183;84;21039;-53
2022/07/03 02:25:23;;;;;;;21.20;13.98;;;;;;;18.96;96.17;95015.98;1660667;84;20974;-52
2022/07/03 02:28:08;;;;;;;25.45;14.90;;;;;;;18.99;96.53;95019.95;1666146;84;21121;-53
2022/07/03 02:30:38;;;;;;;19.55;13.48;;;;;;;19.06;96.17;95015.95;1664557;84;21324;-53
2022/07/03 02:33:06;;;;;;;20.48;13.83;;;;;;;19.07;96.02;95011.28;1665527;84;21042;-53
2022/07/03 02:35:35;;;;;;;18.50;12.37;;;;;;;19.11;95.65;95014.60;1652320;85;21075;-54
2022/07/03 02:38:13;;;;;;;18.37;12.30;;;;;;;19.13;95.55;95009.91;1663147;84;21149;-53
2022/07/03 02:41:06;;;;;;;20.20;13.30;;;;;;;19.17;95.20;95008.45;1625709;86;21471;-54
2022/07/03 02:44:18;;;;;;;26.10;14.73;;;;;;;19.16;95.00;95015.30;1616150;88;21449;-53
2022/07/03 02:47:12;;;;;;;24.85;14.95;;;;;;;19.15;95.19;95008.16;1614723;88;21147;-52
2022/07/03 02:50:10;;;;;;;26.37;13.93;;;;;;;19.17;95.04;95002.88;1672816;84;21171;-53
2022/07/03 02:52:46;;;;;;;27.58;15.43;;;;;;;19.15;94.58;95012.98;1615103;87;21142;-53
2022/07/03 02:55:43;;;;;;;24.27;15.40;;;;;;;19.09;94.64;95019.91;1655404;85;20959;-53
2022/07/03 02:58:31;;;;;;;27.82;14.95;;;;;;;19.05;94.71;95017.95;1662063;84;21240;-52
2022/07/03 03:01:26;;;;;;;26.42;14.28;;;;;;;18.99;94.98;95004.61;1629610;87;20991;-52
2022/07/03 03:04:04;;;;;;;22.50;14.33;;;;;;;18.98;95.01;95010.70;1638079;87;20979;-52
2022/07/03 03:06:33;;;;;;;24.47;15.85;;;;;;;18.93;95.00;95005.82;1610889;88;21491;-52
2022/07/03 03:09:03;;;;;;;32.85;15.93;;;;;;;18.91;95.52;95013.30;1616763;88;21036;-53
2022/07/03 03:11:42;;;;;;;23.77;14.98;;;;;;;18.93;95.66;95012.17;1624987;87;21310;-52
2022/07/03 03:14:13;;;;;;;26.17;15.53;;;;;;;18.92;95.53;95009.25;1621474;88;21023;-53
2022/07/03 03:16:50;;;;;;;24.18;15.58;;;;;;;18.90;95.73;95002.63;1623135;88;21155;-52
2022/07/03 03:19:22;;;;;;;23.70;15.28;;;;;;;18.92;95.87;95005.07;1622833;88;21067;-52
2022/07/03 03:22:09;;;;;;;26.27;16.95;;;;;;;18.93;96.20;95003.81;1621133;88;21113;-52
2022/07/03 03:24:37;;;;;;;26.97;17.37;;;;;;;18.93;96.20;95003.81;1626678;87;21248;-53
2022/07/03 03:27:06;;;;;;;24.72;15.53;;;;;;;18.98;96.14;95007.91;1622628;88;21050;-53
2022/07/03 03:29:34;;;;;;;24.00;15.30;;;;;;;19.04;95.89;95002.48;1654663;85;21078;-53
2022/07/03 03:32:03;;;;;;;30.92;15.60;;;;;;;19.07;95.62;95004.31;1653411;85;21609;-53
2022/07/03 03:34:32;;;;;;;29.12;16.77;;;;;;;19.09;95.41;95003.18;1664947;85;21218;-54
2022/07/03 03:37:00;;;;;;;29.52;17.48;;;;;;;19.10;95.50;94997.73;1666142;85;21291;-53
2022/07/03 03:39:28;;;;;;;28.02;17.73;;;;;;;19.11;95.37;95011.81;1640228;84;21537;-53
2022/07/03 03:41:56;;;;;;;27.27;17.02;;;;;;;19.13;95.18;95006.50;1665962;85;20984;-53
2022/07/03 03:44:24;;;;;;;24.72;14.47;;;;;;;19.17;94.99;95012.64;1655813;85;21086;-52
2022/07/03 03:46:52;;;;;;;21.45;14.98;;;;;;;19.20;94.72;95007.45;1672684;85;20986;-53
2022/07/03 03:49:21;;;;;;;23.75;16.20;;;;;;;19.18;94.59;95012.77;1657882;85;21231;-52
2022/07/03 03:51:49;;;;;;;24.87;16.12;;;;;;;19.19;95.02;95011.51;1628429;86;21101;-53
2022/07/03 03:54:17;;;;;;;20.08;15.23;;;;;;;19.23;94.63;95005.71;1634731;85;21128;-52
2022/07/03 03:56:45;;;;;;;20.88;14.95;;;;;;;19.21;94.74;95004.80;1662362;84;21038;-54
2022/07/03 03:59:14;;;;;;;22.37;15.23;;;;;;;19.26;94.56;95005.48;1664991;84;21039;-54
2022/07/03 04:01:41;;;;;;;27.67;16.60;;;;;;;19.27;94.29;95009.81;1651196;85;21130;-53
2022/07/03 04:04:12;;;;;;;22.65;16.32;;;;;;;19.30;94.20;95008.03;1663861;85;20959;-53
2022/07/03 04:06:39;;;;;;;22.90;14.83;;;;;;;19.31;94.44;94997.00;1655198;84;21098;-52
2022/07/03 04:09:08;;;;;;;19.07;13.58;;;;;;;19.36;94.27;94999.83;1669175;85;21640;-53
2022/07/03 04:11:37;;;;;;;18.77;12.85;;;;;;;19.39;93.90;95000.87;1653898;85;21509;-53
2022/07/03 04:14:05;;;;;;;22.10;16.07;;;;;;;19.40;93.87;95003.80;1639300;86;21234;-52
2022/07/03 04:16:34;;;;;;;21.57;16.45;;;;;;;19.47;94.30;95003.33;1651687;85;21157;-52
2022/07/03 04:19:04;;;;;;;23.02;15.18;;;;;;;19.55;93.97;94993.98;1655107;85;21140;-53
2022/07/03 04:21:32;;;;;;;17.62;14.23;;;;;;;19.61;93.42;94996.81;1667253;84;21551;-53
2022/07/03 04:24:01;;;;;;;17.70;13.35;;;;;;;19.66;92.99;94998.87;1642002;86;21092;-53
2022/07/03 04:26:29;;;;;;;17.67;12.75;;;;;;;19.70;92.80;95010.58;1663800;84;21281;-53
2022/07/03 04:28:57;;;;;;;20.32;13.25;;;;;;;19.78;92.50;95000.45;1656650;85;21084;-53
2022/07/03 04:31:26;;;;;;;23.75;13.58;;;;;;;19.83;92.43;94999.09;1659069;85;21025;-54
2022/07/03 04:33:54;;;;;;;19.07;10.85;;;;;;;19.93;91.77;94999.00;1659487;85;21632;-54
2022/07/03 04:36:22;;;;;;;13.62;11.80;;;;;;;19.94;90.94;95001.17;1669277;84;21156;-54
2022/07/03 04:38:50;;;;;;;10.98;8.60;;;;;;;19.92;90.24;95005.84;1636293;85;22125;-54
2022/07/03 04:41:17;;;;;;;15.10;11.48;;;;;;;19.91;90.23;95004.97;1636045;86;21093;-54
2022/07/03 04:43:46;;;;;;;17.75;13.05;;;;;;;19.90;90.08;95001.41;1659865;85;21018;-55
2022/07/03 04:46:14;;;;;;;17.85;12.85;;;;;;;19.94;90.01;95005.36;1665248;84;21061;-54
2022/07/03 04:48:42;;;;;;;14.18;11.80;;;;;;;19.95;89.97;95010.43;1644922;85;20979;-53
2022/07/03 04:51:10;;;;;;;17.65;12.30;;;;;;;19.95;89.94;95002.70;1663104;84;21271;-54
2022/07/03 04:53:38;;;;;;;16.57;12.37;;;;;;;19.93;90.08;94997.59;1653105;85;20971;-54
2022/07/03 04:56:06;;;;;;;18.27;13.60;;;;;;;19.95;90.29;94999.91;1657481;85;20970;-54
2022/07/03 04:58:34;;;;;;;17.80;13.68;;;;;;;19.93;90.68;95003.19;1670005;84;21042;-54
2022/07/03 05:01:02;;;;;;;18.57;14.13;;;;;;;19.91;90.93;95002.92;1660594;85;20975;-53
2022/07/03 05:03:30;;;;;;;18.98;13.15;;;;;;;19.92;90.95;94998.12;1661759;85;21256;-52
2022/07/03 05:06:02;;;;;;;21.23;12.20;;;;;;;19.98;90.64;95002.47;1665105;85;21447;-53
2022/07/03 05:08:29;;;;;;;15.95;11.03;;;;;;;20.03;90.42;95010.13;1666826;85;21086;-53
2022/07/03 05:10:59;;;;;;;17.90;12.55;;;;;;;20.07;90.18;95005.06;1661882;85;21089;-54
2022/07/03 05:13:28;;;;;;;14.73;11.35;;;;;;;20.08;89.82;95002.39;1669759;84;21553;-53
2022/07/03 05:15:56;;;;;;;32.40;12.90;;;;;;;20.06;89.79;95008.34;1664233;84;21865;-53
2022/07/03 05:18:24;;;;;;;18.02;12.53;;;;;;;20.06;89.81;95005.55;1662398;85;21582;-53
2022/07/03 05:20:53;;;;;;;16.75;10.78;;;;;;;20.08;89.87;95006.58;1671775;85;21074;-54
2022/07/03 05:23:21;;;;;;;15.90;12.50;;;;;;;20.12;89.88;95007.10;1654795;85;21055;-53
2022/07/03 05:25:49;;;;;;;13.75;10.98;;;;;;;20.15;89.92;95012.45;1630219;87;21545;-55
2022/07/03 05:28:17;;;;;;;14.45;10.20;;;;;;;20.20;89.73;95012.35;1610921;88;21175;-54
2022/07/03 05:30:45;;;;;;;10.93;9.68;;;;;;;20.23;89.39;95015.53;1612573;88;21159;-53
2022/07/03 05:33:13;;;;;;;13.25;10.90;;;;;;;20.26;89.01;95018.72;1602552;88;21102;-53
2022/07/03 05:35:42;;;;;;;16.15;10.45;;;;;;;20.26;88.88;95019.49;1604612;88;21109;-54
2022/07/03 05:38:12;;;;;;;11.88;9.70;;;;;;;20.31;88.82;95019.36;1617889;87;21135;-53
2022/07/03 05:40:41;;;;;;;13.62;10.55;;;;;;;20.33;88.73;95015.42;1614557;88;21123;-54
2022/07/03 05:43:10;;;;;;;14.78;10.53;;;;;;;20.34;88.57;95012.78;1622844;88;21030;-54
2022/07/03 05:45:38;;;;;;;13.03;10.23;;;;;;;20.37;88.53;95020.16;1636666;85;21003;-53
2022/07/03 05:48:07;;;;;;;12.05;9.70;;;;;;;20.44;88.42;95016.24;1658076;85;21511;-53
2022/07/03 05:50:36;;;;;;;13.62;10.38;;;;;;;20.57;88.01;95022.09;1671967;85;20982;-53
2022/07/03 05:53:04;;;;;;;14.70;11.20;;;;;;;20.61;87.46;95018.44;1654598;85;21191;-54
2022/07/03 05:55:32;;;;;;;14.60;11.50;;;;;;;20.62;87.38;95019.97;1648030;85;21078;-53
2022/07/03 05:58:00;;;;;;;11.97;10.20;;;;;;;20.68;87.43;95021.36;1646081;85;21063;-53
2022/07/03 06:00:29;;;;;;;17.62;9.83;;;;;;;20.74;86.93;95019.35;1666949;84;21011;-54
2022/07/03 06:02:57;;;;;;;12.28;9.78;;;;;;;20.78;86.47;95016.41;1623864;84;21121;-54
2022/07/03 06:05:26;;;;;;;13.85;9.63;;;;;;;20.80;85.62;95024.30;1667509;85;21126;-54
2022/07/03 06:07:53;;;;;;;11.33;10.13;;;;;;;20.83;85.59;95020.49;1664599;84;20915;-54
2022/07/03 06:10:22;;;;;;;13.80;10.82;;;;;;;20.89;84.98;95022.70;1668047;84;21029;-53
2022/07/03 06:12:50;;;;;;;11.35;10.03;;;;;;;20.92;84.85;95018.24;1659918;85;21046;-53
2022/07/03 06:15:18;;;;;;;13.60;9.43;;;;;;;21.00;84.40;95021.30;1669929;84;21152;-53
2022/07/03 06:17:48;;;;;;;13.30;9.03;;;;;;;21.09;84.21;95016.87;1653474;84;21273;-54
2022/07/03 06:20:16;;;;;;;21.30;10.28;;;;;;;21.18;83.86;95015.20;1664165;85;22690;-53
2022/07/03 06:22:44;;;;;;;12.60;9.90;;;;;;;21.21;83.35;95015.58;1648780;85;21081;-53
2022/07/03 06:25:12;;;;;;;13.98;9.98;;;;;;;21.27;83.36;95012.16;1657483;85;21002;-53
2022/07/03 06:27:42;;;;;;;11.68;10.00;;;;;;;21.36;83.07;95012.66;1659550;85;21030;-53
2022/07/03 06:30:11;;;;;;;12.98;9.58;;;;;;;21.43;82.24;95010.73;1650333;84;21274;-53
2022/07/03 06:32:39;;;;;;;11.68;9.35;;;;;;;21.48;81.60;95008.55;1662906;85;21071;-53
2022/07/03 06:35:08;;;;;;;14.00;9.23;;;;;;;21.53;81.16;95008.42;1667827;85;21138;-53
2022/07/03 06:37:36;;;;;;;10.28;9.10;;;;;;;21.54;80.65;95007.92;1660504;85;21121;-54
2022/07/03 06:40:06;;;;;;;11.50;9.45;;;;;;;21.58;79.84;95003.44;1634695;85;21031;-53
2022/07/03 06:42:34;;;;;;;9.45;8.48;;;;;;;21.57;79.87;95005.49;1642734;85;21812;-54
2022/07/03 06:45:04;;;;;;;11.03;8.68;;;;;;;21.63;79.31;95004.86;1662136;84;21061;-54
2022/07/03 06:47:37;;;;;;;10.98;9.48;;;;;;;21.67;78.32;95007.41;1644503;85;21081;-54
2022/07/03 06:50:07;;;;;;;14.07;10.75;;;;;;;21.73;78.04;95003.95;1644588;84;21200;-54
2022/07/03 06:52:35;;;;;;;10.10;9.00;;;;;;;21.78;78.06;95004.56;1653284;85;21086;-54
2022/07/03 06:55:04;;;;;;;10.82;8.65;;;;;;;21.83;78.12;95005.21;1651041;84;21084;-55
2022/07/03 06:57:33;;;;;;;9.25;8.30;;;;;;;21.91;77.68;95006.97;1665780;84;21035;-53
2022/07/03 07:00:04;;;;;;;10.48;8.93;;;;;;;22.02;77.88;95002.70;1666706;85;21590;-54
2022/07/03 07:02:32;;;;;;;13.28;10.05;;;;;;;22.12;77.24;95010.31;1657872;84;21025;-53
2022/07/03 07:05:01;;;;;;;14.03;11.55;;;;;;;22.18;77.42;95011.70;1630713;86;21084;-54
2022/07/03 07:07:29;;;;;;;12.68;11.20;;;;;;;22.22;77.06;95014.36;1585938;88;21253;-54
2022/07/03 07:09:57;;;;;;;13.72;10.60;;;;;;;22.23;76.50;95011.68;1610746;88;21566;-52
2022/07/03 07:12:25;;;;;;;12.65;8.78;;;;;;;22.26;76.49;95007.84;1611906;88;20983;-53
2022/07/03 07:14:53;;;;;;;11.70;9.05;;;;;;;22.33;76.49;95014.95;1615951;88;21606;-53
2022/07/03 07:17:21;;;;;;;13.25;10.30;;;;;;;22.43;75.60;95014.16;1621875;87;21087;-53
2022/07/03 07:19:49;;;;;;;10.48;9.38;;;;;;;22.50;74.17;95012.20;1617805;88;21146;-53
2022/07/03 07:22:18;;;;;;;12.53;9.28;;;;;;;22.55;73.57;95009.25;1657671;84;20975;-53
2022/07/03 07:24:46;;;;;;;14.40;9.23;;;;;;;22.65;73.36;95009.82;1665779;84;21012;-54
2022/07/03 07:27:14;;;;;;;10.05;8.35;;;;;;;22.77;72.71;95004.27;1660478;84;20974;-54
2022/07/03 07:29:42;;;;;;;12.25;8.60;;;;;;;22.88;71.74;95006.23;1671516;85;20975;-54
2022/07/03 07:32:10;;;;;;;12.28;8.88;;;;;;;22.94;71.63;95007.73;1643011;85;21970;-54
2022/07/03 07:34:41;;;;;;;10.13;8.73;;;;;;;23.03;71.28;95001.78;1659048;85;21576;-53
2022/07/03 07:37:08;;;;;;;14.25;10.40;;;;;;;23.10;70.67;94999.83;1663641;85;21117;-54
2022/07/03 07:39:38;;;;;;;12.03;9.40;;;;;;;23.14;70.50;95000.95;1660103;85;21109;-53
2022/07/03 07:42:08;;;;;;;11.03;9.08;;;;;;;23.20;70.43;95003.09;1644915;85;37880;-54
2022/07/03 07:44:36;;;;;;;10.45;9.35;;;;;;;23.26;69.49;94994.75;1675024;85;21873;-54
2022/07/03 07:47:05;;;;;;;10.40;8.80;;;;;;;23.29;69.18;94993.70;1666309;84;20976;-55
2022/07/03 07:49:33;;;;;;;9.60;8.25;;;;;;;23.31;68.66;94995.34;1656902;85;20983;-53
2022/07/03 07:52:01;;;;;;;9.20;8.30;;;;;;;23.37;68.30;94993.23;1655396;84;21092;-54
2022/07/03 07:54:30;;;;;;;14.18;9.65;;;;;;;23.46;68.28;94994.94;1664637;85;20989;-54
2022/07/03 07:56:58;;;;;;;9.65;8.75;;;;;;;23.53;68.11;95002.15;1642861;85;21851;-54
2022/07/03 07:59:27;;;;;;;12.15;9.38;;;;;;;23.61;67.25;95001.67;1665014;85;21017;-55
2022/07/03 08:07:28;;;;;;;13.88;8.83;;;;;;;23.84;66.59;95000.21;1651314;85;21002;-54
2022/07/03 08:09:56;;;;;;;13.65;9.20;;;;;;;23.84;66.13;94996.00;1655770;85;21450;-54
2022/07/03 08:12:24;;;;;;;11.78;9.65;;;;;;;23.83;66.13;94995.88;1665426;84;21027;-53
2022/07/03 08:14:52;;;;;;;12.60;10.32;;;;;;;23.88;66.01;94994.27;1643522;85;20994;-53
2022/07/03 08:17:21;;;;;;;10.43;9.35;;;;;;;23.94;65.39;94992.19;1632596;87;21130;-53
2022/07/03 08:19:49;;;;;;;10.55;9.23;;;;;;;24.00;65.11;94999.27;1617687;88;21054;-54
2022/07/03 08:22:17;;;;;;;12.95;9.58;;;;;;;24.06;64.66;94998.55;1621617;88;21281;-54
2022/07/03 08:24:46;;;;;;;10.60;9.23;;;;;;;24.07;64.07;95001.48;1648115;85;20968;-54
2022/07/03 08:27:13;;;;;;;11.70;9.65;;;;;;;24.07;63.96;94996.62;1642963;86;21028;-53
2022/07/03 08:29:42;;;;;;;12.88;9.18;;;;;;;24.14;64.57;94995.25;1668077;85;21011;-53
2022/07/03 08:32:10;;;;;;;13.68;9.18;;;;;;;24.19;64.72;94997.25;1652612;85;21093;-53
2022/07/03 08:34:39;;;;;;;9.80;8.88;;;;;;;24.25;64.64;94994.49;1656462;85;21256;-54
2022/07/03 08:37:07;;;;;;;10.20;9.20;;;;;;;24.25;64.28;94995.90;1665823;84;21165;-54
2022/07/03 08:39:36;;;;;;;11.45;10.25;;;;;;;24.26;63.54;94993.20;1675154;85;21102;-54
2022/07/03 08:42:06;;;;;;;12.23;9.28;;;;;;;24.32;63.67;94997.33;1651297;84;21163;-54
2022/07/03 08:44:35;;;;;;;10.32;9.23;;;;;;;24.38;63.33;94997.38;1656361;85;21565;-53
2022/07/03 08:47:04;;;;;;;10.60;8.85;;;;;;;24.41;63.00;94992.75;1660452;84;21227;-53
2022/07/03 08:49:33;;;;;;;10.50;9.50;;;;;;;24.48;63.70;94992.91;1663631;85;21554;-55
2022/07/03 08:52:01;;;;;;;9.90;8.90;;;;;;;24.57;64.18;94991.80;1654008;84;21114;-55
2022/07/03 08:54:31;;;;;;;10.93;9.43;;;;;;;24.68;63.91;94991.63;1663413;85;21014;-54
2022/07/03 08:57:01;;;;;;;10.03;9.03;;;;;;;24.81;63.72;94993.11;1664676;85;21458;-55
2022/07/03 08:59:38;;;;;;;11.85;9.40;;;;;;;24.93;64.06;94995.88;1648561;85;21525;-54
2022/07/03 09:02:06;;;;;;;10.78;9.68;;;;;;;25.01;63.44;95000.36;1663809;84;21030;-54
2022/07/03 09:04:35;;;;;;;14.83;9.38;;;;;;;24.99;62.71;95005.00;1664345;84;21065;-53
2022/07/03 09:07:06;;;;;;;9.93;8.90;;;;;;;24.95;63.00;95005.30;1661939;85;21034;-55
2022/07/03 09:09:34;;;;;;;10.93;9.68;;;;;;;25.00;62.66;94998.06;1667473;85;20991;-55
2022/07/03 09:12:02;;;;;;;13.65;10.43;;;;;;;25.07;62.24;95001.03;1670786;84;21883;-54
2022/07/03 09:14:31;;;;;;;11.95;10.13;;;;;;;25.20;61.96;95005.34;1659682;85;20983;-54
2022/07/03 09:16:59;;;;;;;10.38;9.28;;;;;;;25.34;61.73;94993.45;1647022;85;21117;-54
2022/07/03 09:19:47;;;;;;;10.20;8.83;;;;;;;25.46;61.34;94991.31;1668098;85;21073;-54
2022/07/03 09:22:24;;;;;;;11.73;9.65;;;;;;;25.59;60.43;94989.94;1637618;85;21092;-55
2022/07/03 09:24:54;;;;;;;15.65;10.08;;;;;;;25.66;60.37;94989.30;1682110;84;21263;-54
2022/07/03 09:27:23;;;;;;;12.13;9.58;;;;;;;25.77;59.56;94991.92;1664360;84;20999;-57
2022/07/03 09:30:00;;;;;;;15.70;9.93;;;;;;;25.84;58.83;94991.94;1666056;85;20999;-53
2022/07/03 09:32:48;;;;;;;10.00;9.03;;;;;;;25.92;59.74;94984.37;1664016;83;21482;-54
2022/07/03 09:35:22;;;;;;;10.82;9.75;;;;;;;26.09;60.72;94980.68;1657430;85;20970;-54
2022/07/03 09:38:03;;;;;;;10.68;9.13;;;;;;;26.28;60.03;94979.16;1653734;85;21309;-53
2022/07/03 09:40:54;;;;;;;10.53;9.38;;;;;;;26.49;59.71;94980.77;1644578;85;21149;-55
2022/07/03 09:43:29;;;;;;;11.22;9.28;;;;;;;26.71;58.71;94979.54;1637900;85;21055;-54
2022/07/03 09:45:59;;;;;;;10.78;8.93;;;;;;;26.89;56.81;94977.95;1649462;85;21074;-54
2022/07/03 09:48:33;;;;;;;12.03;9.50;;;;;;;26.98;55.95;94975.31;1665752;85;21079;-55
2022/07/03 09:51:23;;;;;;;13.35;9.40;;;;;;;27.11;56.15;94976.06;1661771;85;21901;-54
2022/07/03 09:53:58;;;;;;;11.45;9.00;;;;;;;27.29;55.47;94973.70;1664300;85;21019;-54
2022/07/03 09:56:35;;;;;;;10.63;8.93;;;;;;;27.39;55.70;94977.55;1671761;85;21232;-55
2022/07/03 09:59:10;;;;;;;10.70;9.53;;;;;;;27.36;54.86;94978.66;1661227;84;20985;-53
2022/07/03 10:01:45;;;;;;;11.05;9.80;;;;;;;27.27;54.56;94972.72;1661827;85;21081;-55
2022/07/03 10:04:22;;;;;;;10.25;9.15;;;;;;;27.28;54.76;94965.77;1639754;85;21155;-53
2022/07/03 10:06:58;;;;;;;11.65;9.70;;;;;;;27.40;57.22;94964.93;1660327;85;21025;-53
2022/07/03 10:09:28;;;;;;;11.65;9.35;;;;;;;27.56;56.75;94954.53;1671238;85;21333;-52
2022/07/03 10:11:56;;;;;;;10.60;8.75;;;;;;;27.60;55.09;94957.09;1670723;85;20998;-54
2022/07/03 10:14:26;;;;;;;11.50;9.50;;;;;;;27.56;54.55;94955.27;1660148;85;21016;-53
2022/07/03 10:16:55;;;;;;;13.83;9.78;;;;;;;27.52;54.06;94954.87;1651309;85;21169;-55
2022/07/03 10:19:28;;;;;;;10.88;9.30;;;;;;;27.53;54.87;94949.95;1668076;85;21031;-54
2022/07/03 10:21:58;;;;;;;;;;;;;;;27.60;56.65;94952.84;1676522;84;20985;-54
2022/07/03 10:24:28;;;;;;;14.78;9.25;;;;;;;27.79;55.47;94944.91;1659015;85;20443;-53
2022/07/03 10:26:57;;;;;;;10.75;8.90;;;;;;;28.00;55.85;94948.47;1640700;85;21529;-53
2022/07/03 10:29:28;;;;;;;10.90;9.80;;;;;;;28.27;56.17;94938.42;1657885;85;21234;-53
2022/07/03 10:31:56;;;;;;;9.18;8.28;;;;;;;28.51;54.31;94936.57;1662770;84;20977;-53
2022/07/03 10:34:26;;;;;;;10.48;9.45;;;;;;;28.63;54.07;94930.68;1636673;85;20980;-54
2022/07/03 10:37:02;;;;;;;10.25;9.15;;;;;;;28.70;52.94;94927.88;1641191;85;21034;-53
2022/07/03 10:39:51;;;;;;;11.18;10.05;;;;;;;28.68;52.22;94927.69;1659311;85;20987;-55
2022/07/03 10:45:18;;;;;;;10.68;9.65;;;;;;;28.68;51.69;94923.44;1674278;84;21106;-54
2022/07/03 10:47:49;;;;;;;12.07;9.60;;;;;;;28.81;51.01;94913.34;1658766;85;21086;-54
2022/07/03 10:50:23;;;;;;;15.35;10.28;;;;;;;28.87;51.90;94913.95;1651686;85;21451;-54
2022/07/03 10:52:52;;;;;;;9.70;8.70;;;;;;;29.04;51.95;94909.18;1648961;85;21156;-54
2022/07/03 10:55:20;;;;;;;10.50;9.40;;;;;;;29.42;53.34;94900.05;1657906;84;21220;-54
2022/07/03 10:58:09;;;;;;;11.53;9.50;;;;;;;29.79;52.09;94910.64;1665157;84;21397;-53
2022/07/03 11:00:54;;;;;;;10.43;9.35;;;;;;;30.00;51.09;94907.67;1661285;85;21853;-54
2022/07/03 11:04:00;;;;;;;10.68;9.58;;;;;;;30.10;49.54;94899.45;1642633;85;20992;-54
2022/07/03 11:07:00;;;;;;;11.35;10.03;;;;;;;30.07;49.16;94905.50;1666080;83;21074;-54
2022/07/03 11:09:30;;;;;;;11.10;9.13;;;;;;;29.83;48.61;94895.43;1655697;85;21167;-56
2022/07/03 11:11:58;;;;;;;12.33;9.40;;;;;;;29.75;49.16;94898.28;1662582;85;20970;-54
2022/07/03 11:14:30;;;;;;;14.28;9.23;;;;;;;29.48;49.60;94904.23;1671396;84;21018;-54
2022/07/03 11:17:21;;;;;;;12.80;8.93;;;;;;;29.32;50.22;94902.69;1653027;84;21409;-54
2022/07/03 11:23:00;;;;;;;11.08;9.95;;;;;;;29.58;50.59;94881.73;1663389;85;21898;-54
2022/07/03 11:25:30;;;;;;;10.98;9.85;;;;;;;29.91;51.55;94887.00;1635586;85;20985;-55
2022/07/03 11:27:58;;;;;;;11.28;10.18;;;;;;;29.94;51.13;94888.01;1625175;85;21204;-54
2022/07/03 11:30:28;;;;;;;10.80;9.70;;;;;;;29.98;51.28;94888.38;1660759;85;21139;-54
2022/07/03 11:32:58;;;;;;;11.05;9.38;;;;;;;29.91;50.92;94883.48;1663753;85;21069;-53
2022/07/03 11:35:47;;;;;;;10.58;9.48;;;;;;;29.77;50.48;94878.59;1662873;85;21282;-55
2022/07/03 11:38:24;;;;;;;10.08;9.03;;;;;;;29.67;50.03;94870.56;1663225;84;20976;-54
2022/07/03 11:40:53;;;;;;;11.97;10.08;;;;;;;30.15;51.33;94878.61;1618145;84;21010;-54
2022/07/03 11:43:21;;;;;;;11.60;10.40;;;;;;;30.58;50.72;94869.77;1660867;85;20983;-54
2022/07/03 11:45:50;;;;;;;10.95;9.38;;;;;;;31.10;50.27;94866.51;1641650;85;20998;-54
2022/07/03 11:48:25;;;;;;;12.45;9.90;;;;;;;31.74;46.69;94861.47;1655601;85;21231;-54
2022/07/03 11:50:55;;;;;;;15.58;9.83;;;;;;;32.14;45.57;94859.14;1654835;84;21074;-53
2022/07/03 11:53:28;;;;;;;10.08;9.13;;;;;;;32.09;45.49;94854.46;1656998;85;20982;-55
2022/07/03 11:56:01;;;;;;;10.35;9.25;;;;;;;32.43;45.05;94848.77;1662543;84;21436;-55